Blue Canyon, California
Current Conditions -  °F | °C
As of 12:52 PM on Tuesday 27 Jan 2015 (Local Time) from KBLU Reporting Station
Overcast Overcast  
Wind Chill: 43°   Ceiling: 8000
Heat Index: 43°   Visibility: 10mi
Dew Point: 30°   Wind: 0mph
Humidity: 60%   Direction: NA
Pressure: 30.26"   Gusts: NA
Location:  39.28°N, 120.7°W
Report Text: KBLU 272052Z AUTO 00000KT 10SM BKN080 OVC095 06/M01 A3026 RMK AO2 SLP215 T00611011 58003
Loading
Personal Weather Stations






























Interactive Weather Map New forecast layout! Learn more

10-Day Weather Forecast

Advertisements
Track Severe Weather on mobile